createdAt,value
2019-03-25T00:00:54.004Z,3.20
2019-03-25T00:01:53.951Z,2.80
2019-03-25T00:02:53.943Z,3.20
2019-03-25T00:03:53.932Z,2.90
2019-03-25T00:04:53.912Z,3.00
2019-03-25T00:05:53.931Z,2.90
2019-03-25T00:06:53.890Z,3.50
2019-03-25T00:07:53.880Z,3.00
2019-03-25T00:09:05.034Z,3.30
2019-03-25T00:09:54.857Z,3.90
2019-03-25T00:10:53.875Z,3.50
2019-03-25T00:11:53.841Z,3.50
2019-03-25T00:12:53.830Z,3.70
2019-03-25T00:13:53.817Z,3.80
2019-03-25T00:14:53.810Z,3.70
2019-03-25T00:15:56.360Z,3.90
2019-03-25T00:16:53.787Z,3.20
2019-03-25T00:17:53.774Z,3.40
2019-03-25T00:18:53.762Z,3.20
2019-03-25T00:19:53.753Z,3.40
2019-03-25T00:20:53.765Z,3.60
2019-03-25T00:21:53.732Z,3.80
2019-03-25T00:22:53.718Z,2.90
2019-03-25T00:23:53.719Z,3.50
2019-03-25T00:24:53.699Z,3.60
2019-03-25T00:25:53.711Z,3.90
2019-03-25T00:26:53.677Z,3.40
2019-03-25T00:27:53.670Z,3.20
2019-03-25T00:28:53.660Z,3.50
2019-03-25T00:29:53.645Z,4.00
2019-03-25T00:30:53.661Z,3.80
2019-03-25T00:31:53.630Z,3.90
2019-03-25T00:32:53.614Z,4.30
2019-03-25T00:33:53.605Z,4.40
2019-03-25T00:34:53.590Z,4.00
2019-03-25T00:35:53.613Z,4.60
2019-03-25T00:36:53.570Z,4.20
2019-03-25T00:37:53.559Z,3.90
2019-03-25T00:38:53.548Z,3.60
2019-03-25T00:39:53.544Z,3.80
2019-03-25T00:40:53.555Z,4.10
2019-03-25T00:41:53.520Z,3.90
2019-03-25T00:42:53.509Z,4.00
2019-03-25T00:43:53.496Z,4.30
2019-03-25T00:44:53.482Z,3.70
2019-03-25T00:45:53.502Z,4.60
2019-03-25T00:46:53.465Z,4.00
2019-03-25T00:47:53.461Z,3.90
2019-03-25T00:48:53.452Z,4.00
2019-03-25T00:49:53.443Z,4.30
2019-03-25T00:50:53.442Z,3.90
2019-03-25T00:51:53.410Z,4.00
2019-03-25T00:52:53.402Z,3.60
2019-03-25T00:53:53.391Z,4.00
2019-03-25T00:54:53.379Z,4.00
2019-03-25T00:55:53.408Z,3.60
2019-03-25T00:56:53.351Z,4.60
2019-03-25T00:57:53.352Z,4.00
2019-03-25T00:58:53.338Z,3.90
2019-03-25T00:59:53.331Z,4.00
2019-03-25T01:00:53.312Z,4.50
2019-03-25T01:01:53.320Z,4.40
2019-03-25T01:02:53.294Z,4.20
2019-03-25T01:03:53.276Z,4.30
2019-03-25T01:04:53.268Z,4.40
2019-03-25T01:05:53.255Z,4.00
2019-03-25T01:06:53.271Z,4.40
2019-03-25T01:07:53.239Z,4.40
2019-03-25T01:08:53.225Z,3.90
2019-03-25T01:09:53.211Z,3.80
2019-03-25T01:10:53.201Z,4.70
2019-03-25T01:11:53.222Z,4.10
2019-03-25T01:12:53.177Z,4.40
2019-03-25T01:13:53.166Z,3.90
2019-03-25T01:14:53.154Z,4.20
2019-03-25T01:15:53.147Z,3.90
2019-03-25T01:16:53.156Z,4.60
2019-03-25T01:17:53.122Z,4.10
2019-03-25T01:18:53.114Z,4.20
2019-03-25T01:19:53.104Z,4.40
2019-03-25T01:20:53.091Z,4.30
2019-03-25T01:21:53.103Z,4.50
2019-03-25T01:22:53.071Z,4.40
2019-03-25T01:23:53.056Z,4.40
2019-03-25T01:25:01.334Z,4.10
2019-03-25T01:25:54.039Z,4.90
2019-03-25T01:26:53.047Z,4.40
2019-03-25T01:27:53.012Z,4.50
2019-03-25T01:28:53.004Z,3.80
2019-03-25T01:29:52.993Z,4.40
2019-03-25T01:30:52.986Z,4.30
2019-03-25T01:31:52.994Z,4.20
2019-03-25T01:32:52.958Z,4.30
2019-03-25T01:33:52.955Z,4.20
2019-03-25T01:34:52.934Z,4.10
2019-03-25T01:35:52.985Z,4.00
2019-03-25T01:36:52.953Z,3.90
2019-03-25T01:37:52.906Z,3.90
2019-03-25T01:38:52.895Z,3.60
2019-03-25T01:39:52.881Z,4.40
2019-03-25T01:40:52.867Z,3.80
2019-03-25T01:41:52.857Z,4.60
2019-03-25T01:42:52.872Z,4.20
2019-03-25T01:43:52.836Z,4.00
2019-03-25T01:44:52.829Z,4.50
2019-03-25T01:45:52.815Z,4.10
2019-03-25T01:46:52.812Z,3.90
2019-03-25T01:47:52.813Z,4.20
2019-03-25T01:48:52.788Z,4.30
2019-03-25T01:49:52.776Z,4.00
2019-03-25T01:50:52.764Z,3.80
2019-03-25T01:51:52.745Z,4.20
2019-03-25T01:52:52.768Z,3.90
2019-03-25T01:53:52.729Z,4.20
2019-03-25T01:54:52.713Z,4.10
2019-03-25T01:55:52.706Z,4.30
2019-03-25T01:56:52.692Z,4.00
2019-03-25T01:57:52.705Z,3.90
2019-03-25T01:58:52.668Z,4.30
2019-03-25T01:59:52.659Z,3.70
2019-03-25T02:00:52.650Z,4.30
2019-03-25T02:01:52.634Z,3.90
2019-03-25T02:02:52.649Z,4.60
2019-03-25T02:03:52.617Z,4.30
2019-03-25T02:04:52.607Z,4.10
2019-03-25T02:05:52.596Z,3.80
2019-03-25T02:06:52.582Z,4.20
2019-03-25T02:07:52.591Z,4.60
2019-03-25T02:08:52.559Z,4.50
2019-03-25T02:09:52.545Z,4.10
2019-03-25T02:10:52.534Z,4.20
2019-03-25T02:11:52.528Z,4.10
2019-03-25T02:12:52.537Z,4.60
2019-03-25T02:13:52.508Z,4.30
2019-03-25T02:14:52.496Z,3.90
2019-03-25T02:15:52.483Z,4.40
2019-03-25T02:16:52.468Z,4.10
2019-03-25T02:17:52.487Z,4.30
2019-03-25T02:18:52.451Z,4.20
2019-03-25T02:19:52.438Z,4.10
2019-03-25T02:20:52.476Z,4.40
2019-03-25T02:21:52.413Z,4.40
2019-03-25T02:22:52.637Z,4.30
2019-03-25T02:23:52.392Z,4.50
2019-03-25T02:24:52.381Z,4.20
2019-03-25T02:25:52.376Z,4.80
2019-03-25T02:26:52.362Z,4.70
2019-03-25T02:27:52.377Z,4.60
2019-03-25T02:28:52.338Z,4.70
2019-03-25T02:29:52.324Z,4.70
2019-03-25T02:30:52.318Z,4.00
2019-03-25T02:31:52.305Z,4.50
2019-03-25T02:32:52.292Z,4.50
2019-03-25T02:33:52.305Z,4.10
2019-03-25T02:34:52.272Z,3.90
2019-03-25T02:35:52.266Z,4.50
2019-03-25T02:36:52.247Z,4.30
2019-03-25T02:37:52.239Z,4.50
2019-03-25T02:38:52.252Z,4.30
2019-03-25T02:39:52.213Z,4.70
2019-03-25T02:40:52.207Z,4.10
2019-03-25T02:41:52.192Z,4.00
2019-03-25T02:42:52.190Z,4.10
2019-03-25T02:43:52.194Z,4.40
2019-03-25T02:44:52.159Z,4.20
2019-03-25T02:45:52.151Z,5.10
2019-03-25T02:46:52.141Z,4.60
2019-03-25T02:47:52.137Z,4.40
2019-03-25T02:48:52.141Z,4.50
2019-03-25T02:49:52.111Z,4.80
2019-03-25T02:50:52.103Z,4.70
2019-03-25T02:51:52.084Z,4.50
2019-03-25T02:52:52.073Z,4.60
2019-03-25T02:53:52.097Z,4.80
2019-03-25T02:54:52.064Z,4.60
2019-03-25T02:55:52.041Z,5.20
2019-03-25T02:56:52.027Z,4.50
2019-03-25T02:57:52.018Z,4.50
2019-03-25T02:58:52.029Z,4.60
2019-03-25T02:59:51.998Z,4.20
2019-03-25T03:00:51.999Z,4.30
2019-03-25T03:01:51.981Z,4.90
2019-03-25T03:02:51.961Z,4.10
2019-03-25T03:03:51.973Z,3.90
2019-03-25T03:04:51.938Z,5.00
2019-03-25T03:05:51.928Z,4.10
2019-03-25T03:06:51.914Z,4.40
2019-03-25T03:07:51.909Z,4.30
2019-03-25T03:08:51.921Z,4.60
2019-03-25T03:09:51.884Z,5.00
2019-03-25T03:10:51.873Z,3.90
2019-03-25T03:11:51.860Z,4.10
2019-03-25T03:12:51.849Z,4.00
2019-03-25T03:13:51.879Z,4.00
2019-03-25T03:14:51.828Z,4.00
2019-03-25T03:15:51.822Z,3.40
2019-03-25T03:16:51.810Z,4.00
2019-03-25T03:17:51.802Z,4.30
2019-03-25T03:18:51.797Z,4.50
2019-03-25T03:19:55.075Z,3.90
2019-03-25T03:20:51.769Z,4.20
2019-03-25T03:21:51.757Z,3.80
2019-03-25T03:22:51.744Z,4.10
2019-03-25T03:23:51.732Z,4.30
2019-03-25T03:24:51.755Z,4.80
2019-03-25T03:25:57.785Z,4.40
2019-03-25T03:26:52.696Z,4.90
2019-03-25T03:27:51.692Z,4.50
2019-03-25T03:28:51.679Z,4.80
2019-03-25T03:29:51.693Z,4.30
2019-03-25T03:30:51.657Z,4.30
2019-03-25T03:31:51.645Z,4.60
2019-03-25T03:32:51.647Z,4.50
2019-03-25T03:33:51.629Z,5.00
2019-03-25T03:34:51.648Z,5.20
2019-03-25T03:35:51.606Z,4.50
2019-03-25T03:36:51.598Z,4.60
2019-03-25T03:37:51.580Z,4.30
2019-03-25T03:38:51.568Z,4.60
2019-03-25T03:39:51.583Z,4.70
2019-03-25T03:40:51.549Z,4.90
2019-03-25T03:41:51.535Z,4.80
2019-03-25T03:42:51.530Z,5.00
2019-03-25T03:43:51.516Z,5.30
2019-03-25T03:44:51.533Z,4.80
2019-03-25T03:45:51.505Z,4.90
2019-03-25T03:46:51.499Z,5.70
2019-03-25T03:47:51.483Z,5.30
2019-03-25T03:48:51.468Z,4.80
2019-03-25T03:49:51.479Z,5.30
2019-03-25T03:50:51.440Z,5.20
2019-03-25T03:51:51.436Z,5.20
2019-03-25T03:52:51.419Z,5.50
2019-03-25T03:53:51.411Z,5.10
2019-03-25T03:54:51.432Z,4.90
2019-03-25T03:55:51.393Z,5.10
2019-03-25T03:56:51.374Z,5.50
2019-03-25T03:57:51.367Z,5.00
2019-03-25T03:58:51.366Z,5.60
2019-03-25T03:59:51.341Z,5.00
2019-03-25T04:00:51.376Z,5.50
2019-03-25T04:01:51.320Z,5.10
2019-03-25T04:02:51.311Z,5.00
2019-03-25T04:03:51.296Z,4.90
2019-03-25T04:04:51.293Z,5.50
2019-03-25T04:05:51.300Z,5.40
2019-03-25T04:06:51.266Z,5.70
2019-03-25T04:07:51.259Z,5.50
2019-03-25T04:08:51.243Z,5.00
2019-03-25T04:09:51.231Z,5.10
2019-03-25T04:10:51.337Z,5.00
2019-03-25T04:11:51.212Z,5.50
2019-03-25T04:12:51.201Z,6.10
2019-03-25T04:13:51.195Z,5.90
2019-03-25T04:14:51.190Z,5.40
2019-03-25T04:15:51.192Z,6.10
2019-03-25T04:16:51.164Z,5.60
2019-03-25T04:17:51.146Z,5.50
2019-03-25T04:18:51.141Z,5.50
2019-03-25T04:19:51.128Z,5.80
2019-03-25T04:20:51.147Z,5.50
2019-03-25T04:21:51.105Z,6.80
2019-03-25T04:22:51.093Z,5.50
2019-03-25T04:23:51.084Z,5.80
2019-03-25T04:24:51.076Z,5.50
2019-03-25T04:25:51.100Z,6.10
2019-03-25T04:26:51.063Z,5.70
2019-03-25T04:27:51.040Z,6.10
2019-03-25T04:28:51.029Z,5.80
2019-03-25T04:29:51.016Z,6.00
2019-03-25T04:30:51.035Z,6.20
2019-03-25T04:31:50.998Z,5.60
2019-03-25T04:32:50.985Z,6.00
2019-03-25T04:33:50.974Z,5.90
2019-03-25T04:34:50.963Z,6.30
2019-03-25T04:35:50.990Z,6.20
2019-03-25T04:36:50.943Z,6.00
2019-03-25T04:37:50.934Z,6.50
2019-03-25T04:38:50.927Z,6.20
2019-03-25T04:39:50.910Z,6.30
2019-03-25T04:40:50.899Z,6.10
2019-03-25T04:41:50.913Z,7.10
2019-03-25T04:42:50.879Z,6.40
2019-03-25T04:43:50.870Z,6.70
2019-03-25T04:44:50.858Z,6.20
2019-03-25T04:45:50.845Z,6.10
2019-03-25T04:46:50.857Z,6.40
2019-03-25T04:47:50.825Z,6.50
2019-03-25T04:48:50.819Z,6.60
2019-03-25T04:49:50.798Z,7.30
2019-03-25T04:50:50.792Z,6.40
2019-03-25T04:51:50.807Z,7.20
2019-03-25T04:52:50.769Z,6.90
2019-03-25T04:53:50.760Z,6.80
2019-03-25T04:54:50.746Z,7.00
2019-03-25T04:55:50.739Z,6.80
2019-03-25T04:56:50.749Z,6.50
2019-03-25T04:57:50.716Z,7.70
2019-03-25T04:58:50.701Z,7.40
2019-03-25T04:59:50.696Z,7.50
2019-03-25T05:00:50.693Z,6.70
2019-03-25T05:01:50.697Z,7.40
2019-03-25T05:02:50.667Z,7.30
2019-03-25T05:03:50.653Z,7.80
2019-03-25T05:04:50.642Z,7.00
2019-03-25T05:05:50.626Z,5.50
2019-03-25T05:06:50.644Z,7.60
2019-03-25T05:07:50.605Z,8.20
2019-03-25T05:08:50.594Z,8.80
2019-03-25T05:09:50.585Z,8.90
2019-03-25T05:10:50.580Z,9.00
2019-03-25T05:11:50.583Z,9.50
2019-03-25T05:12:50.552Z,9.40
2019-03-25T05:13:50.544Z,9.90
2019-03-25T05:14:50.530Z,9.00
2019-03-25T05:15:50.519Z,10.80
2019-03-25T05:16:50.530Z,9.20
2019-03-25T05:17:50.501Z,10.40
2019-03-25T05:18:50.483Z,10.20
2019-03-25T05:19:50.479Z,10.60
2019-03-25T05:20:50.462Z,9.50
2019-03-25T05:21:50.489Z,10.20
2019-03-25T05:22:50.444Z,10.50
2019-03-25T05:23:50.431Z,9.10
2019-03-25T05:24:50.420Z,9.10
2019-03-25T05:25:50.407Z,9.30
2019-03-25T05:26:51.403Z,8.50
2019-03-25T05:27:50.407Z,8.10
2019-03-25T05:28:50.374Z,8.30
2019-03-25T05:29:50.369Z,5.80
2019-03-25T05:30:50.355Z,6.70
2019-03-25T05:31:50.342Z,6.60
2019-03-25T05:32:50.363Z,4.80
2019-03-25T05:33:50.326Z,4.90
2019-03-25T05:34:50.312Z,5.20
2019-03-25T05:35:50.302Z,4.70
2019-03-25T05:36:50.288Z,5.00
2019-03-25T05:37:50.302Z,5.40
2019-03-25T05:38:50.279Z,5.30
2019-03-25T05:39:50.261Z,4.70
2019-03-25T05:40:50.263Z,4.30
2019-03-25T05:41:50.242Z,3.70
2019-03-25T05:42:50.254Z,3.60
2019-03-25T05:43:50.219Z,3.30
2019-03-25T05:44:50.203Z,2.40
2019-03-25T05:45:50.197Z,4.00
2019-03-25T05:46:50.182Z,4.60
2019-03-25T05:47:50.200Z,4.60
2019-03-25T05:48:50.159Z,4.10
2019-03-25T05:49:50.152Z,4.90
2019-03-25T05:50:50.137Z,4.90
2019-03-25T05:51:50.133Z,5.20
2019-03-25T05:52:50.145Z,6.20
2019-03-25T05:53:50.104Z,6.40
2019-03-25T05:54:50.099Z,5.90
2019-03-25T05:55:50.094Z,6.70
2019-03-25T05:56:50.077Z,7.50
2019-03-25T05:57:50.083Z,8.00
2019-03-25T05:58:50.059Z,8.50
2019-03-25T05:59:50.047Z,9.10
2019-03-25T06:00:50.032Z,9.00
2019-03-25T06:01:50.021Z,8.50
2019-03-25T06:02:50.032Z,9.30
2019-03-25T06:03:49.997Z,8.10
2019-03-25T06:04:49.990Z,9.10
2019-03-25T06:05:49.975Z,9.20
2019-03-25T06:06:52.034Z,8.30
2019-03-25T06:07:49.996Z,7.90
2019-03-25T06:08:49.942Z,8.70
2019-03-25T06:09:49.934Z,7.50
2019-03-25T06:10:49.923Z,8.40
2019-03-25T06:11:49.910Z,8.70
2019-03-25T06:12:49.909Z,7.70
2019-03-25T06:13:49.915Z,9.20
2019-03-25T06:14:49.881Z,9.10
2019-03-25T06:15:49.867Z,9.70
2019-03-25T06:16:49.865Z,9.30
2019-03-25T06:17:49.847Z,9.50
2019-03-25T06:18:49.861Z,8.70
2019-03-25T06:19:49.825Z,9.00
2019-03-25T06:20:49.818Z,9.20
2019-03-25T06:21:49.805Z,9.30
2019-03-25T06:22:49.792Z,8.70
2019-03-25T06:23:49.823Z,8.50
2019-03-25T06:24:49.770Z,10.20
2019-03-25T06:25:49.765Z,10.00
2019-03-25T06:26:49.749Z,9.60
2019-03-25T06:27:49.738Z,9.50
2019-03-25T06:28:49.766Z,9.00
2019-03-25T06:29:49.738Z,10.20
2019-03-25T06:30:49.704Z,8.20
2019-03-25T06:31:49.694Z,6.70
2019-03-25T06:32:49.690Z,6.00
2019-03-25T06:33:49.701Z,8.40
2019-03-25T06:34:49.664Z,8.10
2019-03-25T06:35:49.651Z,6.30
2019-03-25T06:36:49.648Z,7.40
2019-03-25T06:37:49.628Z,7.00
2019-03-25T06:38:49.644Z,5.80
2019-03-25T06:39:49.606Z,6.50
2019-03-25T06:40:49.597Z,6.10
2019-03-25T06:41:49.584Z,5.30
2019-03-25T06:42:49.573Z,5.70
2019-03-25T06:43:49.587Z,4.60
2019-03-25T06:44:50.493Z,4.90
2019-03-25T06:45:49.550Z,4.10
2019-03-25T06:46:49.531Z,4.00
2019-03-25T06:47:49.515Z,4.70
2019-03-25T06:48:49.549Z,5.30
2019-03-25T06:49:49.499Z,5.00
2019-03-25T06:50:49.485Z,4.70
2019-03-25T06:51:49.476Z,5.10
2019-03-25T06:52:49.469Z,5.10
2019-03-25T06:53:49.477Z,4.90
2019-03-25T06:54:49.443Z,5.10
2019-03-25T06:55:49.431Z,5.50
2019-03-25T06:56:49.421Z,5.60
2019-03-25T06:57:49.411Z,5.60
2019-03-25T06:58:49.427Z,5.60
2019-03-25T06:59:49.383Z,5.10
2019-03-25T07:00:49.378Z,5.50
2019-03-25T07:01:49.365Z,4.60
2019-03-25T07:02:49.357Z,5.00
2019-03-25T07:03:49.341Z,5.40
2019-03-25T07:04:49.431Z,4.90
2019-03-25T07:05:49.320Z,5.50
2019-03-25T07:06:49.319Z,6.50
2019-03-25T07:07:49.299Z,5.70
2019-03-25T07:08:49.288Z,6.90
2019-03-25T07:09:49.297Z,6.30
2019-03-25T07:10:49.275Z,7.30
2019-03-25T07:11:49.252Z,7.60
2019-03-25T07:12:49.241Z,7.60
2019-03-25T07:13:49.231Z,7.40
2019-03-25T07:14:49.243Z,7.00
2019-03-25T07:15:49.214Z,8.60
2019-03-25T07:16:49.199Z,7.80
2019-03-25T07:17:49.211Z,8.50
2019-03-25T07:18:49.174Z,7.60
2019-03-25T07:19:49.254Z,7.10
2019-03-25T07:20:49.154Z,8.40
2019-03-25T07:21:49.155Z,7.90
2019-03-25T07:22:49.138Z,7.60
2019-03-25T07:23:49.122Z,6.30
2019-03-25T07:24:49.132Z,7.80
2019-03-25T07:25:49.099Z,7.30
2019-03-25T07:26:49.092Z,6.80
2019-03-25T07:27:49.081Z,5.90
2019-03-25T07:28:49.071Z,6.00
2019-03-25T07:29:49.077Z,3.70
2019-03-25T07:30:49.045Z,4.80
2019-03-25T07:31:49.037Z,3.80
2019-03-25T07:32:49.046Z,5.20
2019-03-25T07:33:49.014Z,4.20
2019-03-25T07:34:49.024Z,3.70
2019-03-25T07:35:49.095Z,3.50
2019-03-25T07:36:48.982Z,4.20
2019-03-25T07:37:48.974Z,3.40
2019-03-25T07:38:48.960Z,3.40
2019-03-25T07:39:48.969Z,2.70
2019-03-25T07:40:48.941Z,3.40
2019-03-25T07:41:48.927Z,4.00
2019-03-25T07:42:48.927Z,3.10
2019-03-25T07:43:48.907Z,3.40
2019-03-25T07:44:48.977Z,3.30
2019-03-25T07:45:48.887Z,2.50
2019-03-25T07:46:48.869Z,3.10
2019-03-25T07:47:48.868Z,2.80
2019-03-25T07:48:48.848Z,2.30
2019-03-25T07:49:48.863Z,2.60
2019-03-25T07:50:48.828Z,2.80
2019-03-25T07:51:48.843Z,3.00
2019-03-25T07:52:48.864Z,3.20
2019-03-25T07:53:50.968Z,2.70
2019-03-25T07:54:48.847Z,3.00
2019-03-25T07:55:48.772Z,3.20
2019-03-25T07:56:48.799Z,3.00
2019-03-25T07:57:48.913Z,3.40
2019-03-25T07:58:48.743Z,3.40
2019-03-25T07:59:48.774Z,3.80
2019-03-25T08:00:48.768Z,3.30
2019-03-25T08:01:48.723Z,3.00
2019-03-25T08:02:48.715Z,3.50
2019-03-25T08:03:48.714Z,4.00
2019-03-25T08:04:48.783Z,3.10
2019-03-25T08:05:48.693Z,3.30
2019-03-25T08:06:48.653Z,3.40
2019-03-25T08:07:48.640Z,3.50
2019-03-25T08:08:48.670Z,3.40
2019-03-25T08:09:48.637Z,3.40
2019-03-25T08:10:48.635Z,2.80
2019-03-25T08:11:48.632Z,3.80
2019-03-25T08:12:48.592Z,2.90
2019-03-25T08:13:48.588Z,3.00
2019-03-25T08:14:48.590Z,2.90
2019-03-25T08:15:48.621Z,2.80
2019-03-25T08:16:48.545Z,3.10
2019-03-25T08:17:48.535Z,3.00
2019-03-25T08:18:48.524Z,3.70
2019-03-25T08:19:48.511Z,3.10
2019-03-25T08:20:48.533Z,2.70
2019-03-25T08:21:48.493Z,3.40
2019-03-25T08:22:48.482Z,3.40
2019-03-25T08:23:48.465Z,3.40
2019-03-25T08:24:48.459Z,3.30
2019-03-25T08:25:48.468Z,2.90
2019-03-25T08:26:48.448Z,3.10
2019-03-25T08:27:59.162Z,3.20
2019-03-25T08:28:49.409Z,3.80
2019-03-25T08:29:48.400Z,4.00
2019-03-25T08:30:48.429Z,3.80
2019-03-25T08:31:48.381Z,4.30
2019-03-25T08:32:48.379Z,2.60
2019-03-25T08:33:48.358Z,2.60
2019-03-25T08:34:48.349Z,3.30
2019-03-25T08:35:48.385Z,3.10
2019-03-25T08:36:48.324Z,2.70
2019-03-25T08:37:48.319Z,3.80
2019-03-25T08:38:48.304Z,3.90
2019-03-25T08:39:48.294Z,3.50
2019-03-25T08:40:48.282Z,3.80
2019-03-25T08:41:48.296Z,4.30
2019-03-25T08:42:48.266Z,3.60
2019-03-25T08:43:50.376Z,4.30
2019-03-25T08:44:48.239Z,4.20
2019-03-25T08:45:48.229Z,3.30
2019-03-25T08:46:48.245Z,4.20
2019-03-25T08:47:48.204Z,2.80
2019-03-25T08:48:48.198Z,3.10
2019-03-25T08:49:48.181Z,3.80
2019-03-25T08:50:48.177Z,3.40
2019-03-25T08:51:48.182Z,3.10
2019-03-25T08:52:48.215Z,3.30
2019-03-25T08:53:48.153Z,2.80
2019-03-25T08:54:48.135Z,2.60
2019-03-25T08:55:48.116Z,2.00
2019-03-25T08:56:48.129Z,2.50
2019-03-25T08:57:48.094Z,2.60
2019-03-25T08:58:48.103Z,3.10
2019-03-25T08:59:48.075Z,2.30
2019-03-25T09:00:48.064Z,3.00
2019-03-25T09:01:48.097Z,2.70
2019-03-25T09:02:48.043Z,3.10
2019-03-25T09:03:48.046Z,2.40
2019-03-25T09:04:48.017Z,2.20
2019-03-25T09:05:48.008Z,3.00
2019-03-25T09:06:48.123Z,2.60
2019-03-25T09:07:47.996Z,2.30
2019-03-25T09:08:47.971Z,2.20
2019-03-25T09:09:47.963Z,2.60
2019-03-25T09:10:47.951Z,2.50
2019-03-25T09:11:47.979Z,2.70
2019-03-25T09:12:47.931Z,3.10
2019-03-25T09:13:47.918Z,2.70
2019-03-25T09:14:47.922Z,3.30
2019-03-25T09:15:47.894Z,2.90
2019-03-25T09:16:47.975Z,2.90
2019-03-25T09:17:47.898Z,2.70
2019-03-25T09:18:47.882Z,2.90
2019-03-25T09:19:47.851Z,2.30
2019-03-25T09:20:47.852Z,2.20
2019-03-25T09:21:47.833Z,3.00
2019-03-25T09:22:47.844Z,2.10
2019-03-25T09:23:48.826Z,2.70
2019-03-25T09:24:47.797Z,2.50
2019-03-25T09:25:47.827Z,2.80
2019-03-25T09:26:47.788Z,2.20
2019-03-25T09:27:47.826Z,2.30
2019-03-25T09:28:47.753Z,2.00
2019-03-25T09:29:47.758Z,2.80
2019-03-25T09:30:47.739Z,2.50
2019-03-25T09:31:47.719Z,2.50
2019-03-25T09:32:47.743Z,2.60
2019-03-25T09:33:47.705Z,1.70
2019-03-25T09:34:47.693Z,2.00
2019-03-25T09:35:47.689Z,1.90
2019-03-25T09:36:47.669Z,2.80
2019-03-25T09:37:47.699Z,2.10
2019-03-25T09:38:47.644Z,2.60
2019-03-25T09:39:47.633Z,2.90
2019-03-25T09:40:47.621Z,2.70
2019-03-25T09:41:47.632Z,3.40
2019-03-25T09:42:47.621Z,3.00
2019-03-25T09:43:47.590Z,2.70
2019-03-25T09:44:47.577Z,1.50
2019-03-25T09:45:47.565Z,1.20
2019-03-25T09:46:47.555Z,1.10
2019-03-25T09:47:47.568Z,0.90
2019-03-25T09:48:47.541Z,0.70
2019-03-25T09:49:47.528Z,0.50
2019-03-25T09:50:47.515Z,0.80
2019-03-25T09:51:47.501Z,0.90
2019-03-25T09:52:47.519Z,0.50
2019-03-25T09:53:47.483Z,0.50
2019-03-25T09:54:47.466Z,0.70
2019-03-25T09:55:47.461Z,0.70
2019-03-25T09:56:47.445Z,0.80
2019-03-25T09:57:47.460Z,1.10
2019-03-25T09:58:47.425Z,1.00
2019-03-25T09:59:47.418Z,1.20
2019-03-25T10:00:47.409Z,1.20
2019-03-25T10:01:47.397Z,1.40
2019-03-25T10:02:47.468Z,1.10
2019-03-25T10:03:47.377Z,1.10
2019-03-25T10:04:47.359Z,1.70
2019-03-25T10:05:47.348Z,1.50
2019-03-25T10:06:47.337Z,1.50
2019-03-25T10:07:47.383Z,1.80
2019-03-25T10:08:47.376Z,1.50
2019-03-25T10:09:47.305Z,1.70
2019-03-25T10:10:47.297Z,1.20
2019-03-25T10:11:47.289Z,1.70
2019-03-25T10:12:47.276Z,1.60
2019-03-25T10:13:47.290Z,1.50
2019-03-25T10:14:47.273Z,1.00
2019-03-25T10:15:47.250Z,1.30
2019-03-25T10:16:47.233Z,1.20
2019-03-25T10:17:47.223Z,1.30
2019-03-25T10:18:47.230Z,1.20
2019-03-25T10:19:47.196Z,1.20
2019-03-25T10:20:47.184Z,1.00
2019-03-25T10:21:47.175Z,0.40
2019-03-25T10:22:47.162Z,0.70
2019-03-25T10:23:47.228Z,0.90
2019-03-25T10:24:47.146Z,0.80
2019-03-25T10:25:47.127Z,0.70
2019-03-25T10:26:47.120Z,1.00
2019-03-25T10:27:47.108Z,1.10
2019-03-25T10:28:48.833Z,0.70
2019-03-25T10:29:47.090Z,0.70
2019-03-25T10:30:47.076Z,0.80
2019-03-25T10:31:47.063Z,0.80
2019-03-25T10:32:47.051Z,1.20
2019-03-25T10:33:47.084Z,1.20
2019-03-25T10:34:47.034Z,1.30
2019-03-25T10:35:47.019Z,1.10
2019-03-25T10:36:47.011Z,0.50
2019-03-25T10:37:46.994Z,0.50
2019-03-25T10:38:47.018Z,1.30
2019-03-25T10:39:46.973Z,1.30
2019-03-25T10:40:53.470Z,0.70
2019-03-25T10:41:46.956Z,1.10
2019-03-25T10:43:55.682Z,0.80
2019-03-25T10:44:55.642Z,0.80
2019-03-25T10:45:55.646Z,1.00
2019-03-25T10:46:55.623Z,1.00
2019-03-25T10:47:55.613Z,0.90
2019-03-25T10:48:55.706Z,1.40
2019-03-25T10:49:55.613Z,0.70
2019-03-25T10:50:55.591Z,1.20
2019-03-25T10:51:55.571Z,0.80
2019-03-25T10:52:55.561Z,1.10
2019-03-25T10:53:55.574Z,1.50
2019-03-25T10:55:55.524Z,1.10
2019-03-25T10:56:55.535Z,1.40
2019-03-25T10:57:55.516Z,1.00
2019-03-25T10:58:58.287Z,1.00
2019-03-25T10:59:55.504Z,1.50
2019-03-25T11:00:55.476Z,1.20
2019-03-25T11:01:55.453Z,1.20
2019-03-25T11:02:55.460Z,1.10
2019-03-25T11:03:55.435Z,1.30
2019-03-25T11:04:55.447Z,1.60
2019-03-25T11:05:55.412Z,1.70
2019-03-25T11:06:55.399Z,1.50
2019-03-25T11:07:55.394Z,1.40
2019-03-25T11:08:55.378Z,1.60
2019-03-25T11:09:55.390Z,1.40
2019-03-25T11:10:55.360Z,1.30
2019-03-25T11:11:55.348Z,1.50
2019-03-25T11:12:55.335Z,1.20
2019-03-25T11:13:55.322Z,1.00
2019-03-25T11:14:55.342Z,0.80
2019-03-25T11:15:55.301Z,0.50
2019-03-25T11:16:55.286Z,0.40
2019-03-25T11:17:55.276Z,0.40
2019-03-25T11:18:55.265Z,0.50
2019-03-25T11:19:55.278Z,0.50
2019-03-25T11:20:55.246Z,0.50
2019-03-25T11:21:55.233Z,0.50
2019-03-25T11:22:55.252Z,0.30
2019-03-25T11:23:55.214Z,0.50
2019-03-25T11:24:55.226Z,0.40
2019-03-25T11:25:55.197Z,0.30
2019-03-25T11:26:55.179Z,0.50
2019-03-25T11:27:55.165Z,0.50
2019-03-25T11:28:55.157Z,0.40
2019-03-25T11:29:55.234Z,0.40
2019-03-25T11:30:55.134Z,0.40
2019-03-25T11:31:55.123Z,0.30
2019-03-25T11:32:55.112Z,0.20
2019-03-25T11:33:55.149Z,0.50
2019-03-25T11:34:55.115Z,0.60
2019-03-25T11:35:55.094Z,0.40
2019-03-25T11:36:55.068Z,0.70
2019-03-25T11:37:55.062Z,0.50
2019-03-25T11:38:55.044Z,0.60
2019-03-25T11:39:55.084Z,0.70
2019-03-25T11:40:55.023Z,1.20
2019-03-25T11:41:55.018Z,1.10
2019-03-25T11:42:55.014Z,1.50
2019-03-25T11:43:54.997Z,1.20
2019-03-25T11:44:54.978Z,1.00
2019-03-25T11:45:54.989Z,1.00
2019-03-25T11:46:54.956Z,0.90
2019-03-25T11:47:54.960Z,1.00
2019-03-25T11:48:54.939Z,1.00
2019-03-25T11:49:54.923Z,0.80
2019-03-25T11:50:54.933Z,0.70
2019-03-25T11:51:54.917Z,0.90
2019-03-25T11:52:54.891Z,0.70
2019-03-25T11:53:54.884Z,0.40
2019-03-25T11:54:54.870Z,0.60
2019-03-25T11:55:54.959Z,1.10
2019-03-25T11:56:54.848Z,0.90
2019-03-25T11:57:54.837Z,0.80
2019-03-25T11:58:54.825Z,0.70
2019-03-25T11:59:54.811Z,0.90
2019-03-25T12:00:54.829Z,1.40
2019-03-25T12:01:54.801Z,1.20
2019-03-25T12:02:54.783Z,1.80
2019-03-25T12:03:54.769Z,1.90
2019-03-25T12:04:54.761Z,2.10
2019-03-25T12:05:54.994Z,2.50
2019-03-25T12:06:54.733Z,2.10
2019-03-25T12:07:54.722Z,2.30
2019-03-25T12:08:54.724Z,2.70
2019-03-25T12:09:54.701Z,3.00
2019-03-25T12:10:54.715Z,2.30
2019-03-25T12:11:54.679Z,2.50
2019-03-25T12:12:54.674Z,2.90
2019-03-25T12:13:54.683Z,2.10
2019-03-25T12:14:54.743Z,1.70
2019-03-25T12:15:54.663Z,1.60
2019-03-25T12:16:54.620Z,1.30
2019-03-25T12:17:54.663Z,1.50
2019-03-25T12:18:54.599Z,1.40
2019-03-25T12:19:54.594Z,1.70
2019-03-25T12:20:54.604Z,0.70
2019-03-25T12:21:54.570Z,0.80
2019-03-25T12:22:54.557Z,0.70
2019-03-25T12:23:54.545Z,0.70
2019-03-25T12:24:54.533Z,1.10
2019-03-25T12:25:54.548Z,1.00
2019-03-25T12:26:54.513Z,0.90
2019-03-25T12:27:54.501Z,1.00
2019-03-25T12:28:54.509Z,1.30
2019-03-25T12:29:54.476Z,0.80
2019-03-25T12:30:54.493Z,0.70
2019-03-25T12:31:54.457Z,0.80
2019-03-25T12:33:03.603Z,1.10
2019-03-25T12:33:55.445Z,0.80
2019-03-25T12:34:54.437Z,0.90
2019-03-25T12:35:54.436Z,0.90
2019-03-25T12:36:54.399Z,0.80
2019-03-25T12:37:54.391Z,0.70
2019-03-25T12:38:54.381Z,0.80
2019-03-25T12:39:54.367Z,0.70
2019-03-25T12:40:54.386Z,0.90
2019-03-25T12:41:54.356Z,0.80
2019-03-25T12:42:54.333Z,0.60
2019-03-25T12:43:54.323Z,0.60
2019-03-25T12:44:54.310Z,0.90
2019-03-25T12:45:54.363Z,0.80
2019-03-25T12:46:54.290Z,0.90
2019-03-25T12:47:54.286Z,0.80
2019-03-25T12:48:54.269Z,0.50
2019-03-25T12:49:54.254Z,1.10
2019-03-25T12:50:54.267Z,0.70
2019-03-25T12:51:54.250Z,1.40
2019-03-25T12:52:54.227Z,1.30
2019-03-25T12:53:54.212Z,1.10
2019-03-25T12:54:54.202Z,1.20
2019-03-25T12:55:54.211Z,1.00
2019-03-25T12:56:54.187Z,1.40
2019-03-25T12:57:54.167Z,1.20
2019-03-25T12:58:54.159Z,1.30
2019-03-25T12:59:54.157Z,1.10
2019-03-25T13:00:54.157Z,1.00
2019-03-25T13:01:54.122Z,1.40
2019-03-25T13:02:54.111Z,1.20
2019-03-25T13:03:54.106Z,1.00
2019-03-25T13:04:54.087Z,1.00
2019-03-25T13:05:54.118Z,0.90
2019-03-25T13:06:54.066Z,1.10
2019-03-25T13:07:54.069Z,1.60
2019-03-25T13:08:54.077Z,0.80
2019-03-25T13:09:54.031Z,1.00
2019-03-25T13:10:54.019Z,1.10
2019-03-25T13:11:54.032Z,1.40
2019-03-25T13:12:54.035Z,1.70
2019-03-25T13:13:53.988Z,1.30
2019-03-25T13:14:53.978Z,1.10
2019-03-25T13:15:53.973Z,1.40
2019-03-25T13:16:53.975Z,1.70
2019-03-25T13:17:53.945Z,1.80
2019-03-25T13:18:53.998Z,1.50
2019-03-25T13:19:53.923Z,1.30
2019-03-25T13:20:53.912Z,0.60